createdAt,value
2018-12-30T00:02:52.749Z,99.00
2018-12-30T00:05:58.323Z,98.90
2018-12-30T00:09:04.872Z,98.80
2018-12-30T00:12:10.419Z,98.80
2018-12-30T00:15:15.668Z,98.70
2018-12-30T00:18:20.676Z,98.70
2018-12-30T00:21:25.847Z,98.60
2018-12-30T00:24:30.817Z,98.70
2018-12-30T00:27:35.792Z,98.60
2018-12-30T00:30:41.036Z,98.50
2018-12-30T00:33:46.143Z,98.40
2018-12-30T00:36:51.254Z,98.40
2018-12-30T00:39:56.379Z,98.40
2018-12-30T00:43:01.439Z,98.20
2018-12-30T00:46:06.515Z,98.20
2018-12-30T00:49:11.717Z,98.10
2018-12-30T00:52:16.679Z,98.10
2018-12-30T00:55:21.675Z,98.20
2018-12-30T00:58:26.792Z,98.20
2018-12-30T01:01:31.894Z,98.30
2018-12-30T01:04:36.994Z,98.20
2018-12-30T01:07:42.324Z,98.30
2018-12-30T01:10:47.485Z,98.60
2018-12-30T01:13:52.579Z,98.40
2018-12-30T01:16:57.644Z,98.80
2018-12-30T01:20:02.747Z,98.30
2018-12-30T01:23:08.067Z,98.30
2018-12-30T01:26:13.187Z,98.40
2018-12-30T01:29:18.289Z,98.30
2018-12-30T01:32:23.417Z,98.20
2018-12-30T01:35:28.460Z,98.10
2018-12-30T01:38:33.487Z,98.30
2018-12-30T01:41:38.601Z,98.40
2018-12-30T01:44:43.632Z,98.50
2018-12-30T01:47:48.806Z,98.70
2018-12-30T01:50:53.838Z,98.90
2018-12-30T01:53:58.888Z,99.20
2018-12-30T01:57:04.206Z,99.40
2018-12-30T02:00:09.780Z,99.50
2018-12-30T02:03:14.915Z,99.50
2018-12-30T02:06:20.735Z,99.60
2018-12-30T02:09:25.834Z,99.70
2018-12-30T02:12:30.882Z,99.70
2018-12-30T02:15:35.983Z,99.70
2018-12-30T02:18:41.119Z,99.80
2018-12-30T02:21:46.235Z,99.90
2018-12-30T02:24:51.208Z,99.90
2018-12-30T02:27:56.326Z,99.90
2018-12-30T02:31:01.696Z,99.90
2018-12-30T02:34:06.723Z,99.90
2018-12-30T02:37:11.719Z,99.90
2018-12-30T02:40:16.736Z,99.90
2018-12-30T02:43:21.788Z,99.90
2018-12-30T02:46:26.816Z,99.90
2018-12-30T02:49:32.859Z,99.90
2018-12-30T02:52:37.981Z,99.90
2018-12-30T02:55:43.010Z,99.90
2018-12-30T02:58:48.116Z,99.90
2018-12-30T03:01:53.063Z,99.90
2018-12-30T03:04:58.208Z,99.90
2018-12-30T03:08:03.316Z,99.90
2018-12-30T03:11:08.272Z,99.90
2018-12-30T03:14:13.315Z,99.90
2018-12-30T03:17:18.292Z,99.90
2018-12-30T03:20:23.391Z,99.90
2018-12-30T03:23:28.464Z,99.90
2018-12-30T03:26:33.423Z,99.90
2018-12-30T03:29:38.407Z,99.90
2018-12-30T03:32:43.365Z,99.90
2018-12-30T03:35:48.473Z,99.90
2018-12-30T03:38:53.439Z,99.90
2018-12-30T03:41:58.469Z,99.90
2018-12-30T03:45:03.584Z,99.90
2018-12-30T03:48:08.550Z,99.90
2018-12-30T03:51:13.571Z,99.90
2018-12-30T03:54:18.620Z,99.90
2018-12-30T03:57:23.808Z,99.90
2018-12-30T04:00:28.852Z,99.90
2018-12-30T04:03:33.881Z,99.90
2018-12-30T04:06:38.837Z,99.90
2018-12-30T04:09:43.799Z,99.90
2018-12-30T04:12:48.839Z,99.90
2018-12-30T04:15:53.877Z,99.90
2018-12-30T04:18:58.908Z,99.90
2018-12-30T04:22:04.008Z,99.90
2018-12-30T04:25:09.142Z,99.90
2018-12-30T04:28:14.099Z,99.90
2018-12-30T04:31:19.144Z,99.90
2018-12-30T04:34:24.115Z,99.90
2018-12-30T04:37:29.743Z,99.90
2018-12-30T04:40:34.708Z,99.90
2018-12-30T04:43:39.677Z,99.90
2018-12-30T04:46:44.627Z,99.90
2018-12-30T04:49:49.663Z,99.90
2018-12-30T04:52:54.617Z,99.90
2018-12-30T04:55:59.594Z,99.90
2018-12-30T04:59:04.699Z,99.90
2018-12-30T05:02:09.656Z,99.90
2018-12-30T05:05:14.697Z,99.90
2018-12-30T05:08:19.725Z,99.90
2018-12-30T05:11:24.699Z,99.90
2018-12-30T05:14:29.736Z,99.90
2018-12-30T05:17:34.679Z,99.90
2018-12-30T05:20:39.715Z,99.90
2018-12-30T05:23:44.655Z,99.90
2018-12-30T05:26:49.615Z,99.90
2018-12-30T05:29:54.601Z,99.90
2018-12-30T05:32:59.562Z,99.90
2018-12-30T05:36:04.673Z,99.90
2018-12-30T05:39:09.635Z,99.90
2018-12-30T05:42:14.663Z,99.90
2018-12-30T05:45:19.632Z,99.90
2018-12-30T05:48:24.667Z,99.90
2018-12-30T05:51:29.708Z,99.90
2018-12-30T05:54:34.824Z,99.90
2018-12-30T05:57:39.780Z,99.90
2018-12-30T06:00:44.810Z,99.90
2018-12-30T06:03:49.752Z,99.90
2018-12-30T06:06:54.803Z,99.90
2018-12-30T06:09:59.763Z,99.90
2018-12-30T06:13:04.872Z,99.90
2018-12-30T06:16:09.902Z,99.70
2018-12-30T06:19:14.859Z,99.60
2018-12-30T06:22:19.896Z,99.50
2018-12-30T06:25:24.860Z,99.50
2018-12-30T06:28:29.900Z,99.60
2018-12-30T06:31:34.859Z,99.70
2018-12-30T06:34:39.799Z,99.60
2018-12-30T06:37:44.755Z,99.50
2018-12-30T06:40:49.795Z,99.30
2018-12-30T06:43:54.749Z,99.30
2018-12-30T06:46:59.700Z,99.20
2018-12-30T06:50:04.871Z,99.20
2018-12-30T06:53:09.812Z,99.10
2018-12-30T06:56:15.059Z,99.00
2018-12-30T06:59:20.151Z,98.90
2018-12-30T07:02:25.255Z,98.90
2018-12-30T07:05:30.214Z,98.90
2018-12-30T07:08:35.235Z,98.90
2018-12-30T07:11:40.258Z,98.80
2018-12-30T07:14:45.356Z,98.70
2018-12-30T07:17:50.560Z,98.60
2018-12-30T07:20:55.905Z,98.50
2018-12-30T07:24:01.082Z,98.50
2018-12-30T07:27:06.106Z,98.40
2018-12-30T07:30:11.681Z,98.20
2018-12-30T07:33:16.704Z,98.10
2018-12-30T07:36:21.727Z,98.00
2018-12-30T07:39:26.755Z,97.90
2018-12-30T07:42:32.215Z,97.80
2018-12-30T07:45:37.160Z,97.80
2018-12-30T07:48:42.267Z,97.80
2018-12-30T07:51:47.644Z,97.70
2018-12-30T07:54:52.814Z,97.60
2018-12-30T07:57:57.824Z,97.60
2018-12-30T08:01:02.856Z,97.60
2018-12-30T08:04:07.792Z,97.50
2018-12-30T08:07:12.796Z,97.40
2018-12-30T08:10:17.813Z,97.40
2018-12-30T08:13:22.859Z,97.20
2018-12-30T08:16:28.047Z,97.10
2018-12-30T08:19:32.995Z,97.00
2018-12-30T08:22:38.278Z,96.80
2018-12-30T08:25:43.589Z,96.70
2018-12-30T08:28:48.883Z,96.60
2018-12-30T08:31:53.927Z,96.70
2018-12-30T08:34:58.953Z,96.60
2018-12-30T08:38:04.222Z,96.40
2018-12-30T08:41:09.355Z,96.30
2018-12-30T08:44:14.315Z,96.10
2018-12-30T08:47:19.356Z,96.10
2018-12-30T08:50:24.280Z,96.00
2018-12-30T08:53:29.629Z,95.90
2018-12-30T08:56:34.827Z,95.70
2018-12-30T08:59:39.855Z,95.60
2018-12-30T09:02:44.816Z,95.50
2018-12-30T09:05:49.902Z,95.50
2018-12-30T09:08:54.947Z,95.60
2018-12-30T09:11:59.966Z,95.40
2018-12-30T09:15:05.275Z,95.40
2018-12-30T09:18:10.237Z,95.10
2018-12-30T09:21:15.260Z,94.90
2018-12-30T09:24:20.592Z,94.70
2018-12-30T09:27:25.719Z,94.50
2018-12-30T09:30:30.791Z,94.40
2018-12-30T09:33:35.798Z,94.20
2018-12-30T09:36:40.902Z,94.10
2018-12-30T09:39:45.856Z,94.00
2018-12-30T09:42:50.879Z,94.00
2018-12-30T09:45:55.898Z,93.80
2018-12-30T09:49:00.940Z,93.60
2018-12-30T09:52:05.948Z,93.50
2018-12-30T09:55:10.991Z,93.20
2018-12-30T09:58:15.949Z,92.90
2018-12-30T10:01:20.898Z,92.70
2018-12-30T10:04:25.953Z,92.70
2018-12-30T10:07:30.991Z,92.50
2018-12-30T10:10:35.991Z,92.40
2018-12-30T10:13:40.958Z,92.10
2018-12-30T10:16:45.967Z,91.70
2018-12-30T10:19:51.007Z,91.60
2018-12-30T10:22:58.848Z,91.50
2018-12-30T10:26:02.624Z,91.60
2018-12-30T10:29:07.655Z,91.60
2018-12-30T10:32:12.689Z,91.20
2018-12-30T10:35:17.791Z,91.40
2018-12-30T10:38:22.764Z,91.40
2018-12-30T10:41:27.819Z,91.30
2018-12-30T10:44:32.983Z,91.30
2018-12-30T10:47:38.351Z,91.50
2018-12-30T10:50:43.832Z,91.70
2018-12-30T10:53:49.356Z,91.90
2018-12-30T10:56:54.415Z,92.00
2018-12-30T10:59:59.437Z,91.90
2018-12-30T11:03:04.538Z,91.70
2018-12-30T11:06:09.662Z,91.70
2018-12-30T11:09:15.039Z,91.80
2018-12-30T11:12:20.071Z,91.60
2018-12-30T11:15:25.103Z,91.80
2018-12-30T11:18:30.194Z,92.40
2018-12-30T11:21:35.223Z,92.10
2018-12-30T11:24:40.259Z,91.80
2018-12-30T11:27:45.892Z,91.40
2018-12-30T11:30:50.996Z,91.40
2018-12-30T11:33:56.046Z,90.90
2018-12-30T11:37:01.076Z,90.90
2018-12-30T11:40:06.687Z,90.80
2018-12-30T11:43:11.817Z,90.70
2018-12-30T11:46:17.083Z,90.40
2018-12-30T11:49:22.061Z,90.00
2018-12-30T11:52:27.163Z,89.30
2018-12-30T11:55:32.258Z,89.50
2018-12-30T11:58:37.351Z,89.10
2018-12-30T12:01:42.384Z,89.00
2018-12-30T12:04:47.478Z,88.50
2018-12-30T12:07:52.512Z,88.40
2018-12-30T12:10:57.636Z,87.10
2018-12-30T12:14:02.594Z,86.50
2018-12-30T12:17:07.621Z,86.80
2018-12-30T12:20:12.732Z,86.30
2018-12-30T12:23:17.783Z,86.30
2018-12-30T12:27:01.608Z,86.60
2018-12-30T12:30:08.370Z,85.60
2018-12-30T12:33:13.307Z,85.80
2018-12-30T12:36:18.275Z,86.80
2018-12-30T12:39:23.316Z,88.40
2018-12-30T12:42:28.351Z,89.60
2018-12-30T12:45:34.676Z,90.20
2018-12-30T12:48:39.631Z,90.70
2018-12-30T12:51:44.583Z,91.10
2018-12-30T12:54:49.563Z,91.70
2018-12-30T12:57:54.615Z,91.50
2018-12-30T13:00:59.648Z,91.70
2018-12-30T13:04:04.753Z,91.90
2018-12-30T13:07:09.729Z,92.30
2018-12-30T13:10:14.698Z,92.00
2018-12-30T13:13:19.796Z,92.20
2018-12-30T13:16:24.836Z,92.30
2018-12-30T13:19:29.876Z,92.30
2018-12-30T13:22:34.912Z,92.40
2018-12-30T13:25:39.955Z,92.40
2018-12-30T13:28:44.993Z,92.40
2018-12-30T13:31:49.972Z,92.40
2018-12-30T13:34:55.063Z,92.40
2018-12-30T13:38:00.100Z,92.50
2018-12-30T13:41:05.153Z,92.40
2018-12-30T13:44:10.098Z,92.40
2018-12-30T13:47:15.067Z,92.40
2018-12-30T13:50:20.102Z,92.40
2018-12-30T13:53:25.992Z,92.60
2018-12-30T13:56:31.032Z,92.70
2018-12-30T13:59:36.143Z,92.70
2018-12-30T14:02:41.199Z,92.70
2018-12-30T14:05:46.343Z,92.80
2018-12-30T14:08:51.383Z,92.80
2018-12-30T14:11:56.347Z,92.90
2018-12-30T14:15:01.452Z,92.90
2018-12-30T14:18:06.579Z,92.90
2018-12-30T14:21:11.620Z,92.90
2018-12-30T14:24:16.671Z,92.90
2018-12-30T14:27:21.777Z,92.90
2018-12-30T14:30:26.827Z,92.90
2018-12-30T14:33:31.808Z,93.00
2018-12-30T14:36:36.784Z,93.00
2018-12-30T14:39:41.828Z,93.10
2018-12-30T14:42:46.796Z,93.30
2018-12-30T14:45:51.835Z,93.20
2018-12-30T14:48:56.877Z,93.30
2018-12-30T14:52:01.828Z,93.20
2018-12-30T14:55:07.070Z,93.30
2018-12-30T14:58:12.126Z,93.40
2018-12-30T15:01:17.379Z,93.40
2018-12-30T15:04:22.344Z,93.40
2018-12-30T15:07:27.442Z,93.40
2018-12-30T15:10:32.543Z,93.50
2018-12-30T15:13:37.598Z,93.50
2018-12-30T15:16:42.630Z,93.60
2018-12-30T15:19:47.712Z,93.60
2018-12-30T15:22:52.830Z,93.60
2018-12-30T15:25:57.938Z,93.60
2018-12-30T15:29:03.098Z,94.00
2018-12-30T15:32:08.251Z,93.60
2018-12-30T15:35:15.552Z,93.60
2018-12-30T15:38:20.702Z,93.70
2018-12-30T15:41:25.842Z,93.70
2018-12-30T15:44:30.786Z,93.70
2018-12-30T15:47:35.897Z,93.70
2018-12-30T15:50:40.987Z,93.70
2018-12-30T15:53:46.039Z,93.70
2018-12-30T15:56:51.163Z,93.70
2018-12-30T15:59:56.146Z,93.60
2018-12-30T16:03:01.208Z,93.70
2018-12-30T16:06:06.228Z,93.70
2018-12-30T16:09:11.196Z,93.80
2018-12-30T16:12:16.427Z,94.00
2018-12-30T16:15:21.478Z,93.70
2018-12-30T16:18:26.435Z,93.70
2018-12-30T16:21:31.475Z,93.70
2018-12-30T16:24:36.551Z,93.80
2018-12-30T16:27:41.531Z,93.90
2018-12-30T16:30:46.511Z,93.90
2018-12-30T16:33:51.479Z,93.90
2018-12-30T16:36:56.528Z,94.00
2018-12-30T16:40:01.525Z,94.00
2018-12-30T16:43:06.576Z,94.10
2018-12-30T16:46:11.554Z,94.10
2018-12-30T16:49:16.594Z,94.10
2018-12-30T16:52:21.646Z,94.10
2018-12-30T16:55:26.702Z,94.10
2018-12-30T16:58:31.734Z,94.10
2018-12-30T17:01:36.783Z,94.00
2018-12-30T17:04:41.768Z,94.10
2018-12-30T17:07:46.735Z,94.00
2018-12-30T17:10:51.783Z,94.00
2018-12-30T17:13:56.750Z,94.10
2018-12-30T17:17:01.796Z,94.10
2018-12-30T17:20:07.068Z,94.20
2018-12-30T17:23:12.350Z,94.20
2018-12-30T17:26:17.328Z,94.30
2018-12-30T17:29:22.357Z,94.30
2018-12-30T17:32:27.344Z,94.40
2018-12-30T17:35:32.324Z,94.40
2018-12-30T17:38:37.398Z,94.50
2018-12-30T17:41:42.396Z,94.40
2018-12-30T17:44:47.417Z,94.50
2018-12-30T17:47:52.471Z,94.50
2018-12-30T17:50:57.425Z,94.70
2018-12-30T17:54:02.471Z,94.70
2018-12-30T17:57:07.527Z,94.60
2018-12-30T18:00:12.646Z,94.50
2018-12-30T18:03:17.624Z,94.90
2018-12-30T18:06:22.716Z,94.50
2018-12-30T18:09:27.738Z,94.50
2018-12-30T18:12:32.708Z,94.50
2018-12-30T18:15:37.814Z,94.50
2018-12-30T18:18:42.801Z,94.60
2018-12-30T18:21:47.916Z,94.70
2018-12-30T18:24:52.963Z,94.70
2018-12-30T18:27:58.070Z,94.70
2018-12-30T18:31:03.214Z,94.80
2018-12-30T18:34:08.271Z,94.90
2018-12-30T18:37:13.321Z,94.90
2018-12-30T18:40:18.445Z,94.90
2018-12-30T18:43:34.348Z,95.00
2018-12-30T18:46:39.476Z,95.40
2018-12-30T18:49:44.576Z,95.00
2018-12-30T18:52:49.589Z,94.90
2018-12-30T18:55:54.729Z,94.90
2018-12-30T18:59:00.325Z,94.90
2018-12-30T19:02:05.960Z,94.90
2018-12-30T19:05:11.471Z,94.80
2018-12-30T19:08:16.808Z,95.20
2018-12-30T19:11:21.993Z,94.70
2018-12-30T19:14:27.251Z,94.80
2018-12-30T19:17:32.377Z,95.10
2018-12-30T19:20:37.424Z,94.80
2018-12-30T19:23:42.491Z,94.70
2018-12-30T19:26:47.522Z,94.80
2018-12-30T19:29:53.073Z,94.70
2018-12-30T19:32:58.132Z,94.80
2018-12-30T19:36:03.092Z,94.80
2018-12-30T19:39:08.239Z,94.90
2018-12-30T19:42:13.273Z,94.80
2018-12-30T19:45:18.382Z,94.80
2018-12-30T19:48:23.499Z,94.70
2018-12-30T19:51:28.485Z,94.70
2018-12-30T19:54:33.472Z,94.70
2018-12-30T19:57:38.514Z,94.70
2018-12-30T20:00:43.544Z,94.80
2018-12-30T20:03:48.699Z,94.70
2018-12-30T20:06:53.802Z,94.70
2018-12-30T20:09:58.963Z,94.80
2018-12-30T20:13:08.909Z,94.90
2018-12-30T20:16:10.780Z,95.00
2018-12-30T20:19:16.473Z,94.90
2018-12-30T20:22:21.667Z,95.00
2018-12-30T20:25:27.064Z,95.00
2018-12-30T20:28:32.044Z,95.10
2018-12-30T20:31:37.103Z,95.10
2018-12-30T20:34:42.083Z,95.10
2018-12-30T20:37:47.055Z,95.20
2018-12-30T20:40:52.164Z,95.20
2018-12-30T20:43:57.155Z,95.20
2018-12-30T20:47:02.203Z,95.30
2018-12-30T20:50:07.380Z,95.30
2018-12-30T20:53:12.469Z,95.30
2018-12-30T20:56:17.503Z,95.30
2018-12-30T20:59:22.723Z,95.40
2018-12-30T21:02:27.748Z,95.50
2018-12-30T21:05:32.741Z,95.40
2018-12-30T21:08:37.951Z,95.50
2018-12-30T21:11:43.062Z,95.90
2018-12-30T21:14:48.347Z,95.60
2018-12-30T21:17:53.859Z,95.60
2018-12-30T21:20:59.236Z,95.50
2018-12-30T21:24:04.323Z,95.60
2018-12-30T21:27:09.355Z,95.60
2018-12-30T21:30:14.608Z,95.60
2018-12-30T21:33:19.868Z,95.60
2018-12-30T21:36:25.363Z,95.70
2018-12-30T21:39:30.586Z,95.70
2018-12-30T21:42:43.521Z,95.70
2018-12-30T21:45:43.271Z,95.80
2018-12-30T21:48:48.411Z,95.80
2018-12-30T21:51:53.735Z,95.80
2018-12-30T21:54:59.137Z,95.90
2018-12-30T21:58:05.046Z,95.90
2018-12-30T22:01:10.330Z,96.00
2018-12-30T22:04:15.479Z,96.00
2018-12-30T22:07:20.531Z,96.10
2018-12-30T22:10:26.198Z,96.10
2018-12-30T22:13:31.296Z,96.20
2018-12-30T22:16:36.351Z,96.20
2018-12-30T22:19:41.800Z,96.20
2018-12-30T22:22:47.281Z,96.20
2018-12-30T22:25:52.609Z,96.20
2018-12-30T22:28:57.588Z,96.20
2018-12-30T22:32:02.788Z,96.60
2018-12-30T22:35:08.276Z,96.30
2018-12-30T22:38:13.525Z,96.30
2018-12-30T22:41:18.858Z,96.20
2018-12-30T22:44:24.024Z,96.20
2018-12-30T22:47:29.156Z,96.20
2018-12-30T22:50:34.203Z,96.30
2018-12-30T22:53:39.552Z,96.00
2018-12-30T22:56:44.823Z,95.90
2018-12-30T22:59:49.943Z,95.90
2018-12-30T23:02:55.011Z,96.00
2018-12-30T23:06:00.348Z,96.10
2018-12-30T23:09:07.535Z,96.10
2018-12-30T23:12:12.667Z,96.10
2018-12-30T23:15:17.746Z,96.20
2018-12-30T23:18:23.207Z,96.20
2018-12-30T23:21:28.289Z,96.30
2018-12-30T23:24:33.331Z,96.20
2018-12-30T23:27:38.390Z,96.30
2018-12-30T23:30:43.454Z,96.30
2018-12-30T23:33:48.749Z,96.40
2018-12-30T23:36:53.911Z,96.40
2018-12-30T23:39:58.899Z,96.40
2018-12-30T23:43:04.286Z,96.70
2018-12-30T23:46:09.364Z,96.40
2018-12-30T23:49:14.419Z,96.30
2018-12-30T23:52:19.466Z,96.30
2018-12-30T23:55:24.531Z,96.20
2018-12-30T23:58:29.667Z,96.20
